createdAt,value
2023-05-09T00:01:36.476Z,7.80
2023-05-09T00:04:07.806Z,7.80
2023-05-09T00:06:36.064Z,7.70
2023-05-09T00:09:08.320Z,7.70
2023-05-09T00:11:36.594Z,7.80
2023-05-09T00:14:06.083Z,7.70
2023-05-09T00:16:37.534Z,7.90
2023-05-09T00:19:07.364Z,7.70
2023-05-09T00:21:37.203Z,7.70
2023-05-09T00:24:07.396Z,7.40
2023-05-09T00:26:35.363Z,7.70
2023-05-09T00:29:05.716Z,7.70
2023-05-09T00:31:35.093Z,7.70
2023-05-09T00:34:04.426Z,7.60
2023-05-09T00:36:36.389Z,7.50
2023-05-09T00:39:05.895Z,7.30
2023-05-09T00:41:34.300Z,7.30
2023-05-09T00:44:07.722Z,7.30
2023-05-09T00:46:41.696Z,7.20
2023-05-09T00:49:10.599Z,7.30
2023-05-09T00:51:41.009Z,7.00
2023-05-09T00:54:12.865Z,7.20
2023-05-09T00:56:43.139Z,7.50
2023-05-09T00:59:13.652Z,7.50
2023-05-09T01:01:46.915Z,7.20
2023-05-09T01:04:15.733Z,7.20
2023-05-09T01:07:14.811Z,7.20
2023-05-09T01:10:05.287Z,7.20
2023-05-09T01:13:01.371Z,7.10
2023-05-09T01:16:08.611Z,4.40
2023-05-09T01:19:03.252Z,7.10
2023-05-09T01:21:35.690Z,6.90
2023-05-09T01:24:39.124Z,7.10
2023-05-09T01:27:45.298Z,6.80
2023-05-09T01:30:19.592Z,6.60
2023-05-09T01:32:54.421Z,6.70
2023-05-09T01:35:26.724Z,6.40
2023-05-09T01:38:00.449Z,6.60
2023-05-09T01:40:33.941Z,6.90
2023-05-09T01:43:10.843Z,6.50
2023-05-09T01:45:46.579Z,6.50
2023-05-09T01:48:16.300Z,6.60
2023-05-09T01:50:49.835Z,6.50
2023-05-09T01:53:21.502Z,6.50
2023-05-09T01:55:52.476Z,6.40
2023-05-09T01:58:26.480Z,6.40
2023-05-09T02:00:59.258Z,5.80
2023-05-09T02:03:34.955Z,6.10
2023-05-09T02:06:05.136Z,6.30
2023-05-09T02:08:37.851Z,6.50
2023-05-09T02:11:12.357Z,6.30
2023-05-09T02:13:42.227Z,6.30
2023-05-09T02:16:12.549Z,6.00
2023-05-09T02:18:42.499Z,6.10
2023-05-09T02:21:13.276Z,6.00
2023-05-09T02:23:44.277Z,6.00
2023-05-09T02:26:13.992Z,6.20
2023-05-09T02:28:45.788Z,5.70
2023-05-09T02:31:16.838Z,5.90
2023-05-09T02:33:49.403Z,5.70
2023-05-09T02:36:20.151Z,5.80
2023-05-09T02:38:51.739Z,6.10
2023-05-09T02:41:26.405Z,5.60
2023-05-09T02:43:55.616Z,5.70
2023-05-09T02:46:25.869Z,5.80
2023-05-09T02:48:58.360Z,5.80
2023-05-09T02:51:34.131Z,5.90
2023-05-09T02:54:08.030Z,5.60
2023-05-09T02:56:38.524Z,5.60
2023-05-09T02:59:09.582Z,5.50
2023-05-09T03:01:39.551Z,5.70
2023-05-09T03:04:10.682Z,5.70
2023-05-09T03:06:43.709Z,5.50
2023-05-09T03:09:17.735Z,5.40
2023-05-09T03:11:46.614Z,5.40
2023-05-09T03:14:16.508Z,5.30
2023-05-09T03:16:47.587Z,5.30
2023-05-09T03:19:18.474Z,5.60
2023-05-09T03:21:49.707Z,5.10
2023-05-09T03:24:22.824Z,5.30
2023-05-09T03:26:54.280Z,5.20
2023-05-09T03:29:25.875Z,5.30
2023-05-09T03:32:00.497Z,5.20
2023-05-09T03:34:33.805Z,5.00
2023-05-09T03:37:09.857Z,5.20
2023-05-09T03:39:40.234Z,4.70
2023-05-09T03:42:12.705Z,4.90
2023-05-09T03:44:42.581Z,5.00
2023-05-09T03:47:14.247Z,4.90
2023-05-09T03:49:45.082Z,5.00
2023-05-09T03:52:19.156Z,5.00
2023-05-09T03:54:47.702Z,5.10
2023-05-09T03:57:17.520Z,5.00
2023-05-09T03:59:51.131Z,5.10
2023-05-09T04:02:21.938Z,5.00
2023-05-09T04:04:55.708Z,5.30
2023-05-09T04:07:27.475Z,5.30
2023-05-09T04:10:18.110Z,5.40
2023-05-09T04:12:47.428Z,5.50
2023-05-09T04:15:19.703Z,5.60
2023-05-09T04:17:52.289Z,5.70
2023-05-09T04:20:23.982Z,6.00
2023-05-09T04:22:55.213Z,5.60
2023-05-09T04:25:27.297Z,5.60
2023-05-09T04:27:57.008Z,6.30
2023-05-09T04:30:28.491Z,6.40
2023-05-09T04:33:05.060Z,6.40
2023-05-09T04:35:39.437Z,6.60
2023-05-09T04:38:12.185Z,6.70
2023-05-09T04:40:46.388Z,6.80
2023-05-09T04:43:21.785Z,7.30
2023-05-09T04:45:56.455Z,8.20
2023-05-09T04:48:40.782Z,8.80
2023-05-09T04:51:17.831Z,9.30
2023-05-09T04:53:49.899Z,9.80
2023-05-09T04:56:22.368Z,10.50
2023-05-09T04:59:00.357Z,10.40
2023-05-09T05:01:35.763Z,10.30
2023-05-09T05:04:11.069Z,10.30
2023-05-09T05:06:43.811Z,10.40
2023-05-09T05:09:18.415Z,11.60
2023-05-09T05:11:59.543Z,11.60
2023-05-09T05:14:35.924Z,11.50
2023-05-09T05:17:05.768Z,11.20
2023-05-09T05:19:35.200Z,10.80
2023-05-09T05:22:04.726Z,10.50
2023-05-09T05:24:40.900Z,10.40
2023-05-09T05:27:13.767Z,10.40
2023-05-09T05:29:41.557Z,10.80
2023-05-09T05:32:12.491Z,11.30
2023-05-09T05:34:44.273Z,11.60
2023-05-09T05:37:31.063Z,12.50
2023-05-09T05:40:04.799Z,12.70
2023-05-09T05:42:33.759Z,12.50
2023-05-09T05:45:08.946Z,11.70
2023-05-09T05:47:40.205Z,11.20
2023-05-09T05:50:12.270Z,10.40
2023-05-09T05:52:44.209Z,10.50
2023-05-09T05:55:13.909Z,10.60
2023-05-09T05:57:43.985Z,10.60
2023-05-09T06:00:16.058Z,13.00
2023-05-09T06:02:46.146Z,14.60
2023-05-09T06:05:19.484Z,15.70
2023-05-09T06:07:49.642Z,15.80
2023-05-09T06:10:21.288Z,16.30
2023-05-09T06:12:50.115Z,16.70
2023-05-09T06:15:24.548Z,16.60
2023-05-09T06:17:52.824Z,16.20
2023-05-09T06:20:29.671Z,16.00
2023-05-09T06:22:58.625Z,16.10
2023-05-09T06:25:30.404Z,16.30
2023-05-09T06:28:00.621Z,17.70
2023-05-09T06:30:32.494Z,18.00
2023-05-09T06:33:01.520Z,18.60
2023-05-09T06:35:30.990Z,18.40
2023-05-09T06:38:00.751Z,18.10
2023-05-09T06:40:29.370Z,18.10
2023-05-09T06:42:59.523Z,17.80
2023-05-09T06:45:28.711Z,18.00
2023-05-09T06:48:09.087Z,18.50
2023-05-09T06:50:39.173Z,19.70
2023-05-09T06:53:10.492Z,19.70
2023-05-09T06:55:54.471Z,20.30
2023-05-09T06:58:23.308Z,20.80
2023-05-09T07:00:55.849Z,21.80
2023-05-09T07:03:25.204Z,21.30
2023-05-09T07:05:55.639Z,20.30
2023-05-09T07:08:24.233Z,21.70
2023-05-09T07:11:05.769Z,21.80
2023-05-09T07:13:36.915Z,21.80
2023-05-09T07:16:09.402Z,23.10
2023-05-09T07:18:48.257Z,22.10
2023-05-09T07:21:20.251Z,21.60
2023-05-09T07:24:04.183Z,22.30
2023-05-09T07:26:36.907Z,22.40
2023-05-09T07:29:10.041Z,23.10
2023-05-09T07:31:39.334Z,22.80
2023-05-09T07:34:16.207Z,23.70
2023-05-09T07:36:48.685Z,23.90
2023-05-09T07:39:17.268Z,22.20
2023-05-09T07:41:48.728Z,21.60
2023-05-09T07:44:17.782Z,21.70
2023-05-09T07:46:51.157Z,20.50
2023-05-09T07:49:30.177Z,21.80
2023-05-09T07:52:13.582Z,23.10
2023-05-09T07:54:46.699Z,23.30
2023-05-09T07:57:35.341Z,24.30
2023-05-09T08:00:06.685Z,25.40
2023-05-09T08:02:36.471Z,24.30
2023-05-09T08:05:08.396Z,22.80
2023-05-09T08:07:38.263Z,22.70
2023-05-09T08:10:07.795Z,22.30
2023-05-09T08:12:37.466Z,22.10
2023-05-09T08:15:09.687Z,22.00
2023-05-09T08:17:42.452Z,21.00
2023-05-09T08:20:11.799Z,20.20
2023-05-09T08:22:40.932Z,19.30
2023-05-09T08:25:09.564Z,18.90
2023-05-09T08:27:38.342Z,18.80
2023-05-09T08:30:08.079Z,20.30
2023-05-09T08:32:39.511Z,20.30
2023-05-09T08:35:09.253Z,21.40
2023-05-09T08:37:38.316Z,22.10
2023-05-09T08:40:07.946Z,22.20
2023-05-09T08:42:48.520Z,22.70
2023-05-09T08:45:21.016Z,22.60
2023-05-09T08:47:53.906Z,22.50
2023-05-09T08:50:22.693Z,22.60
2023-05-09T08:52:52.563Z,22.70
2023-05-09T08:55:21.940Z,23.80
2023-05-09T08:57:50.993Z,23.60
2023-05-09T09:00:23.728Z,21.70
2023-05-09T09:02:59.341Z,22.10
2023-05-09T09:05:46.682Z,22.90
2023-05-09T09:08:15.894Z,22.70
2023-05-09T09:10:50.553Z,23.00
2023-05-09T09:13:20.928Z,23.00
2023-05-09T09:15:53.474Z,23.20
2023-05-09T09:18:31.418Z,24.00
2023-05-09T09:21:10.009Z,23.10
2023-05-09T09:23:43.273Z,22.10
2023-05-09T09:26:14.696Z,21.80
2023-05-09T09:28:46.058Z,22.50
2023-05-09T09:31:26.388Z,23.10
2023-05-09T09:34:02.256Z,22.90
2023-05-09T09:36:35.304Z,21.20
2023-05-09T09:39:07.366Z,22.00
2023-05-09T09:41:39.092Z,22.80
2023-05-09T09:44:14.327Z,24.10
2023-05-09T09:46:49.063Z,23.30
2023-05-09T09:49:28.021Z,22.60
2023-05-09T09:51:59.543Z,19.00
2023-05-09T09:54:29.338Z,18.70
2023-05-09T09:56:57.735Z,18.80
2023-05-09T09:59:27.646Z,19.30
2023-05-09T10:02:10.380Z,20.90
2023-05-09T10:04:42.007Z,20.50
2023-05-09T10:07:15.106Z,21.80
2023-05-09T10:09:44.201Z,21.90
2023-05-09T10:12:15.044Z,21.70
2023-05-09T10:14:43.743Z,21.10
2023-05-09T10:17:18.258Z,21.20
2023-05-09T10:19:50.313Z,20.50
2023-05-09T10:22:20.651Z,20.30
2023-05-09T10:25:02.123Z,19.40
2023-05-09T10:27:35.419Z,19.00
2023-05-09T10:30:19.756Z,19.10
2023-05-09T10:33:05.018Z,18.70
2023-05-09T10:35:41.647Z,18.60
2023-05-09T10:38:15.657Z,17.50
2023-05-09T10:40:48.428Z,17.30
2023-05-09T10:43:17.275Z,16.90
2023-05-09T10:45:49.608Z,16.80
2023-05-09T10:48:18.816Z,17.60
2023-05-09T10:50:49.439Z,17.40
2023-05-09T10:53:24.542Z,17.50
2023-05-09T10:56:00.670Z,17.50
2023-05-09T10:58:34.169Z,18.30
2023-05-09T11:01:04.955Z,19.40
2023-05-09T11:04:14.782Z,20.80
2023-05-09T11:06:51.145Z,20.40
2023-05-09T11:09:39.375Z,20.40
2023-05-09T11:12:08.932Z,20.30
2023-05-09T11:14:49.036Z,21.00
2023-05-09T11:17:26.179Z,20.90
2023-05-09T11:20:08.856Z,21.40
2023-05-09T11:22:54.311Z,21.10
2023-05-09T11:25:39.514Z,20.50
2023-05-09T11:28:09.588Z,19.90
2023-05-09T11:30:43.977Z,20.10
2023-05-09T11:33:33.336Z,19.80
2023-05-09T11:36:37.417Z,20.50
2023-05-09T11:39:11.186Z,20.20
2023-05-09T11:41:52.600Z,19.00
2023-05-09T11:44:24.750Z,20.10
2023-05-09T11:46:53.595Z,19.40
2023-05-09T11:49:24.873Z,19.40
2023-05-09T11:52:25.517Z,20.60
2023-05-09T11:54:55.408Z,20.40
2023-05-09T11:57:23.626Z,19.20
2023-05-09T11:59:52.925Z,18.80
2023-05-09T12:02:24.786Z,18.90
2023-05-09T12:05:05.989Z,18.90
2023-05-09T12:07:39.696Z,19.50
2023-05-09T12:10:23.789Z,18.90
2023-05-09T12:12:56.611Z,18.80
2023-05-09T12:15:27.861Z,18.90
2023-05-09T12:18:08.746Z,18.90
2023-05-09T12:20:57.681Z,19.90
2023-05-09T12:23:27.419Z,20.40
2023-05-09T12:25:58.316Z,21.20
2023-05-09T12:28:27.301Z,21.00
2023-05-09T12:30:56.833Z,21.00
2023-05-09T12:33:32.818Z,21.20
2023-05-09T12:36:12.653Z,21.20
2023-05-09T12:38:54.302Z,21.60
2023-05-09T12:44:03.900Z,20.80
2023-05-09T12:46:37.751Z,19.90
2023-05-09T12:49:25.035Z,19.80
2023-05-09T12:52:04.787Z,19.30
2023-05-09T12:54:47.898Z,19.40
2023-05-09T12:57:24.858Z,18.90
2023-05-09T13:00:04.621Z,18.00
2023-05-09T13:02:38.859Z,18.20
2023-05-09T13:05:15.896Z,19.10
2023-05-09T13:07:52.693Z,18.40
2023-05-09T13:10:29.125Z,18.50
2023-05-09T13:12:58.548Z,18.70
2023-05-09T13:15:30.618Z,18.60
2023-05-09T13:18:01.028Z,18.90
2023-05-09T13:20:33.717Z,19.50
2023-05-09T13:23:11.589Z,19.50
2023-05-09T13:25:40.482Z,19.50
2023-05-09T13:28:09.276Z,19.30
2023-05-09T13:30:39.397Z,18.20
2023-05-09T13:33:23.904Z,18.30
2023-05-09T13:35:52.556Z,18.40
2023-05-09T13:38:21.683Z,18.50
2023-05-09T13:40:51.999Z,18.50
2023-05-09T13:43:22.181Z,18.60
2023-05-09T13:45:50.805Z,18.60
2023-05-09T13:48:21.238Z,18.70
2023-05-09T13:50:51.231Z,18.80
2023-05-09T13:53:20.083Z,18.80
2023-05-09T13:56:10.522Z,18.70
2023-05-09T13:58:42.481Z,18.80
2023-05-09T14:01:12.324Z,18.90
2023-05-09T14:03:59.541Z,18.60
2023-05-09T14:06:32.180Z,18.90
2023-05-09T14:09:02.994Z,18.90
2023-05-09T14:11:39.495Z,18.80
2023-05-09T14:14:08.523Z,18.60
2023-05-09T14:16:38.366Z,18.70
2023-05-09T14:19:07.579Z,18.70
2023-05-09T14:21:52.519Z,18.00
2023-05-09T14:24:31.455Z,17.90
2023-05-09T14:27:09.176Z,17.80
2023-05-09T14:29:41.197Z,17.60
2023-05-09T14:32:14.120Z,17.60
2023-05-09T14:34:45.321Z,17.80
2023-05-09T14:37:16.402Z,17.60
2023-05-09T14:39:46.018Z,17.60
2023-05-09T14:42:15.160Z,17.90
2023-05-09T14:44:57.968Z,18.00
2023-05-09T14:47:27.560Z,17.90
2023-05-09T14:49:57.348Z,17.90
2023-05-09T14:52:38.516Z,18.00
2023-05-09T14:55:07.702Z,17.60
2023-05-09T14:57:35.988Z,17.60
2023-05-09T15:00:16.756Z,16.90
2023-05-09T15:02:49.328Z,17.00
2023-05-09T15:05:19.215Z,16.90
2023-05-09T15:07:47.897Z,16.70
2023-05-09T15:10:21.972Z,16.70
2023-05-09T15:13:06.274Z,16.80
2023-05-09T15:15:38.833Z,16.80
2023-05-09T15:18:20.573Z,16.90
2023-05-09T15:20:49.107Z,16.60
2023-05-09T15:23:17.772Z,16.80
2023-05-09T15:25:49.449Z,16.70
2023-05-09T15:28:32.508Z,17.10
2023-05-09T15:31:04.215Z,17.00
2023-05-09T15:33:33.561Z,17.20
2023-05-09T15:36:06.225Z,17.10
2023-05-09T15:38:51.812Z,16.70
2023-05-09T15:41:22.446Z,16.90
2023-05-09T15:43:51.172Z,16.70
2023-05-09T15:46:19.428Z,16.70
2023-05-09T15:48:59.417Z,17.10
2023-05-09T15:55:05.227Z,16.90
2023-05-09T15:57:46.984Z,16.60
2023-05-09T16:00:23.657Z,16.90
2023-05-09T16:02:54.957Z,16.70
2023-05-09T16:05:24.334Z,16.40
2023-05-09T16:07:59.942Z,16.70
2023-05-09T16:13:30.273Z,16.50
2023-05-09T16:16:08.365Z,16.40
2023-05-09T16:18:38.747Z,16.10
2023-05-09T16:21:07.041Z,16.00
2023-05-09T16:23:34.998Z,15.90
2023-05-09T16:26:03.195Z,16.30
2023-05-09T16:28:31.778Z,15.60
2023-05-09T16:31:03.788Z,15.80
2023-05-09T16:33:33.060Z,15.90
2023-05-09T16:36:01.993Z,15.60
2023-05-09T16:38:32.984Z,15.50
2023-05-09T16:41:01.164Z,15.80
2023-05-09T16:43:29.126Z,15.80
2023-05-09T16:45:58.589Z,15.70
2023-05-09T16:48:27.710Z,15.70
2023-05-09T16:50:59.570Z,15.70
2023-05-09T16:53:31.479Z,15.70
2023-05-09T16:55:59.243Z,15.70
2023-05-09T16:58:28.347Z,15.70
2023-05-09T17:00:56.539Z,15.50
2023-05-09T17:03:25.695Z,15.60
2023-05-09T17:05:54.382Z,15.70
2023-05-09T17:08:23.480Z,15.60
2023-05-09T17:10:51.870Z,15.30
2023-05-09T17:13:20.463Z,15.50
2023-05-09T17:15:53.305Z,15.50
2023-05-09T17:18:33.179Z,15.60
2023-05-09T17:21:04.612Z,15.50
2023-05-09T17:23:32.795Z,15.40
2023-05-09T17:26:01.085Z,15.10
2023-05-09T17:28:29.728Z,15.10
2023-05-09T17:30:59.745Z,15.40
2023-05-09T17:33:28.130Z,15.30
2023-05-09T17:35:57.837Z,15.10
2023-05-09T17:38:26.057Z,15.10
2023-05-09T17:40:54.424Z,15.20
2023-05-09T17:43:22.811Z,15.00
2023-05-09T17:45:53.215Z,14.90
2023-05-09T17:48:21.372Z,15.00
2023-05-09T17:50:50.453Z,15.00
2023-05-09T17:53:18.867Z,14.80
2023-05-09T17:55:46.753Z,14.90
2023-05-09T17:58:15.688Z,14.80
2023-05-09T18:00:44.701Z,14.70
2023-05-09T18:03:13.725Z,14.80
2023-05-09T18:05:42.234Z,14.70
2023-05-09T18:08:11.272Z,14.60
2023-05-09T18:10:41.177Z,14.30
2023-05-09T18:13:10.337Z,14.30
2023-05-09T18:15:39.028Z,14.30
2023-05-09T18:18:07.981Z,14.40
2023-05-09T18:20:38.185Z,14.40
2023-05-09T18:23:06.551Z,14.30
2023-05-09T18:25:38.939Z,14.10
2023-05-09T18:28:11.160Z,13.80
2023-05-09T18:30:46.393Z,14.00
2023-05-09T18:33:15.771Z,13.80
2023-05-09T18:35:43.725Z,14.00
2023-05-09T18:38:24.699Z,13.80
2023-05-09T18:40:58.458Z,13.70
2023-05-09T18:43:26.630Z,13.90
2023-05-09T18:45:56.072Z,13.80
2023-05-09T18:48:25.497Z,13.70
2023-05-09T18:50:58.250Z,13.70
2023-05-09T18:53:28.163Z,13.70
2023-05-09T18:55:58.277Z,13.30
2023-05-09T18:58:27.407Z,13.60
2023-05-09T19:00:57.648Z,13.60
2023-05-09T19:03:25.929Z,13.50
2023-05-09T19:06:02.151Z,13.70
2023-05-09T19:08:30.717Z,13.40
2023-05-09T19:10:59.171Z,13.30
2023-05-09T19:13:28.985Z,13.40
2023-05-09T19:16:00.786Z,13.30
2023-05-09T19:18:29.589Z,13.30
2023-05-09T19:21:08.447Z,13.30
2023-05-09T19:23:39.473Z,13.20
2023-05-09T19:26:13.197Z,13.00
2023-05-09T19:28:40.999Z,12.90
2023-05-09T19:31:13.739Z,13.30
2023-05-09T19:33:45.885Z,13.10
2023-05-09T19:36:34.052Z,13.20
2023-05-09T19:39:01.977Z,13.20
2023-05-09T19:41:31.278Z,13.20
2023-05-09T19:44:02.819Z,13.10
2023-05-09T19:46:41.188Z,13.00
2023-05-09T19:49:13.185Z,12.80
2023-05-09T19:51:49.294Z,12.80
2023-05-09T19:54:20.873Z,12.90
2023-05-09T19:56:49.341Z,13.00
2023-05-09T19:59:22.300Z,13.00
2023-05-09T20:01:51.395Z,12.70
2023-05-09T20:04:22.585Z,13.00
2023-05-09T20:06:52.206Z,12.70
2023-05-09T20:09:24.282Z,12.90
2023-05-09T20:11:54.372Z,12.80
2023-05-09T20:14:25.694Z,12.60
2023-05-09T20:16:57.951Z,12.80
2023-05-09T20:19:30.238Z,12.60
2023-05-09T20:21:58.693Z,10.40
2023-05-09T20:24:32.697Z,12.60
2023-05-09T20:27:03.720Z,12.30
2023-05-09T20:29:35.268Z,12.30
2023-05-09T20:32:04.409Z,12.40
2023-05-09T20:34:35.998Z,12.30
2023-05-09T20:37:08.911Z,12.20
2023-05-09T20:39:40.140Z,12.40
2023-05-09T20:42:09.392Z,11.90
2023-05-09T20:44:39.684Z,12.00
2023-05-09T20:47:08.862Z,11.50
2023-05-09T20:49:40.541Z,11.90
2023-05-09T20:52:09.376Z,11.70
2023-05-09T20:54:38.334Z,11.60
2023-05-09T20:57:07.485Z,11.90
2023-05-09T20:59:36.872Z,11.50
2023-05-09T21:02:09.093Z,11.30
2023-05-09T21:04:37.750Z,11.20
2023-05-09T21:07:06.526Z,11.30
2023-05-09T21:09:36.608Z,9.80
2023-05-09T21:12:05.357Z,11.50
2023-05-09T21:14:33.781Z,11.30
2023-05-09T21:17:03.445Z,10.90
2023-05-09T21:19:32.702Z,11.00
2023-05-09T21:22:01.365Z,10.70
2023-05-09T21:24:30.697Z,11.10
2023-05-09T21:26:59.074Z,11.30
2023-05-09T21:29:28.126Z,10.60
2023-05-09T21:32:01.112Z,10.80
2023-05-09T21:34:29.762Z,10.80
2023-05-09T21:36:58.549Z,10.40
2023-05-09T21:39:28.351Z,10.40
2023-05-09T21:41:57.408Z,10.50
2023-05-09T21:44:26.827Z,10.70
2023-05-09T21:46:57.350Z,10.50
2023-05-09T21:49:27.409Z,10.30
2023-05-09T21:51:56.546Z,10.30
2023-05-09T21:54:24.887Z,10.20
2023-05-09T21:56:55.724Z,10.30
2023-05-09T21:59:24.297Z,10.10
2023-05-09T22:01:53.144Z,10.20
2023-05-09T22:04:22.674Z,10.20
2023-05-09T22:06:53.131Z,10.20
2023-05-09T22:09:22.061Z,9.70
2023-05-09T22:11:50.163Z,10.10
2023-05-09T22:14:21.400Z,9.70
2023-05-09T22:16:50.724Z,9.60
2023-05-09T22:19:21.832Z,9.90
2023-05-09T22:21:50.204Z,10.00
2023-05-09T22:24:19.151Z,9.80
2023-05-09T22:26:48.558Z,9.80
2023-05-09T22:29:17.712Z,9.80
2023-05-09T22:31:52.920Z,9.40
2023-05-09T22:34:21.762Z,9.50
2023-05-09T22:36:50.582Z,9.90
2023-05-09T22:39:20.869Z,9.80
2023-05-09T22:41:49.406Z,9.70
2023-05-09T22:44:19.808Z,9.80
2023-05-09T22:46:49.849Z,9.80
2023-05-09T22:49:18.797Z,9.90
2023-05-09T22:51:48.325Z,9.70
2023-05-09T22:54:23.781Z,9.50
2023-05-09T22:56:51.774Z,9.70
2023-05-09T22:59:21.294Z,9.90
2023-05-09T23:01:52.106Z,9.50
2023-05-09T23:04:20.164Z,10.00
2023-05-09T23:06:49.594Z,9.50
2023-05-09T23:09:18.553Z,9.60
2023-05-09T23:11:47.673Z,9.70
2023-05-09T23:14:16.671Z,9.60
2023-05-09T23:16:45.667Z,9.50
2023-05-09T23:19:14.546Z,9.60
2023-05-09T23:21:43.628Z,9.60
2023-05-09T23:24:12.941Z,9.50
2023-05-09T23:26:41.333Z,9.40
2023-05-09T23:29:09.254Z,9.50
2023-05-09T23:31:37.704Z,9.60
2023-05-09T23:34:07.332Z,9.60
2023-05-09T23:36:36.547Z,9.70
2023-05-09T23:39:05.678Z,9.30
2023-05-09T23:41:34.248Z,9.30
2023-05-09T23:44:04.272Z,9.60
2023-05-09T23:46:33.971Z,9.30
2023-05-09T23:49:03.205Z,9.20
2023-05-09T23:51:32.756Z,9.10
2023-05-09T23:54:01.176Z,9.00
2023-05-09T23:56:29.662Z,9.20
2023-05-09T23:58:59.396Z,9.50
